Aérodrome :
LOGIN :

S'inscrire | Disclaimer

   EN    FR    IT 

 










Légende :    VFR   VFR Marginal   IFR   IFR Intensif   IFR Très Intensif
Visi : 
Plafond : 
>= 8 km
>= 3000ft
5 à 8 km
1000 à 3000 ft
1500m à 5 km
500 à 1000 ft
800 à 1500m
200 à 500 ft
< 800m
< 200 ft
Symboles :   Orages  Brouillard  Fortes neiges  Fortes précipitations  Vent > 20 kt
SIGMETs :   Divers  Orages  Givrage  Turbulence  Onde Orograph.  Cendres Volcan.







- Altitude de l'aérodrome : 82 ft
- Code IATA : QIE
- Voir les cartes d'approche


LFMI - Istres

DERNIER METAR :
  • 170930Z AUTO 33023KT CAVOK 29/14 Q1014 TEMPO 30020G30KT

METARs EXPIRÉS :
  • 170900Z AUTO 32024KT CAVOK 28/14 Q1014 TEMPO 30020G30KT
  • 170830Z AUTO 32024KT CAVOK 28/15 Q1014 TEMPO 30020G30KT
  • 170800Z AUTO 32024KT CAVOK 27/15 Q1014 TEMPO 30020G30KT
  • 170730Z AUTO 32022KT CAVOK 27/15 Q1014 TEMPO 30020G30KT
  • 170700Z AUTO 31019KT CAVOK 26/16 Q1014 TEMPO 30020G30KT

TAF TAF LFMI
Valide du 17 à 09h jusqu'au 18 à 09h UTC


170800Z 1709/1809 32020KT CAVOK
TEMPO 1709/1718 30020G30KT
BECMG 1720/1722 34010KT
Pas de NOTAMs connus pour ce terrain.



MET'MAP, la Météo Aéronautique d'un coup d'oeil ! - Copyright ORBIFLY Décembre 2007 - Disclaimer

ORBIFLY MET'MAP TEAM :

Programmation & Développement : Alexandra Zaïnal
Conception & Développement : Baudouin d'Aumeries
Co-Programmation & Développement : Marc-Olivier Méhu
Soutien technique & logistique : Manuel Goepfert

Contact : metmap@orbifly.com




SOURCES & CREDITS :

   NOAA